createdAt,value
2024-01-05T00:01:59.959Z,9.43
2024-01-05T00:04:26.505Z,7.63
2024-01-05T00:06:55.375Z,8.73
2024-01-05T00:09:22.216Z,7.47
2024-01-05T00:11:49.551Z,10.87
2024-01-05T00:14:18.538Z,11.03
2024-01-05T00:16:47.717Z,8.80
2024-01-05T00:19:17.334Z,8.47
2024-01-05T00:21:43.947Z,13.33
2024-01-05T00:24:10.609Z,14.70
2024-01-05T00:26:41.394Z,21.70
2024-01-05T00:29:07.804Z,12.93
2024-01-05T00:31:34.781Z,6.23
2024-01-05T00:34:02.279Z,15.40
2024-01-05T00:36:28.937Z,10.77
2024-01-05T00:38:55.491Z,8.43
2024-01-05T00:41:24.736Z,11.40
2024-01-05T00:43:51.181Z,8.90
2024-01-05T00:46:17.648Z,8.67
2024-01-05T00:48:44.313Z,15.33
2024-01-05T00:51:10.892Z,7.83
2024-01-05T00:53:37.567Z,17.80
2024-01-05T00:56:05.702Z,11.17
2024-01-05T00:58:32.586Z,5.47
2024-01-05T01:00:59.060Z,8.50
2024-01-05T01:03:25.944Z,10.97
2024-01-05T01:05:52.378Z,11.60
2024-01-05T01:08:18.920Z,10.23
2024-01-05T01:10:45.275Z,11.10
2024-01-05T01:13:11.598Z,5.67
2024-01-05T01:15:38.036Z,8.13
2024-01-05T01:18:04.813Z,7.20
2024-01-05T01:20:31.261Z,9.77
2024-01-05T01:22:57.752Z,5.77
2024-01-05T01:25:24.322Z,7.77
2024-01-05T01:27:50.931Z,9.47
2024-01-05T01:30:17.678Z,7.87
2024-01-05T01:32:44.360Z,8.27
2024-01-05T01:35:10.742Z,14.27
2024-01-05T01:37:37.696Z,7.73
2024-01-05T01:40:06.405Z,5.53
2024-01-05T01:42:34.129Z,5.83
2024-01-05T01:45:01.033Z,8.50
2024-01-05T01:47:28.973Z,5.90
2024-01-05T01:49:57.831Z,14.97
2024-01-05T01:52:24.716Z,10.80
2024-01-05T01:54:51.302Z,5.80
2024-01-05T01:57:19.261Z,8.43
2024-01-05T01:59:46.123Z,8.67
2024-01-05T02:02:14.418Z,14.87
2024-01-05T02:04:41.224Z,2.10
2024-01-05T02:07:07.915Z,6.80
2024-01-05T02:09:34.840Z,8.50
2024-01-05T02:12:01.401Z,3.80
2024-01-05T02:14:28.491Z,8.47
2024-01-05T02:16:55.934Z,5.50
2024-01-05T02:19:22.590Z,11.73
2024-01-05T02:21:51.341Z,11.67
2024-01-05T02:24:18.105Z,5.63
2024-01-05T02:26:44.840Z,7.17
2024-01-05T02:29:11.503Z,6.20
2024-01-05T02:31:38.226Z,11.13
2024-01-05T02:34:04.694Z,11.63
2024-01-05T02:36:31.316Z,6.53
2024-01-05T02:38:58.282Z,4.60
2024-01-05T02:41:24.718Z,8.50
2024-01-05T02:43:51.171Z,10.17
2024-01-05T02:46:17.536Z,11.20
2024-01-05T02:48:44.322Z,10.77
2024-01-05T02:51:14.240Z,6.03
2024-01-05T02:53:42.181Z,8.27
2024-01-05T02:56:08.518Z,8.17
2024-01-05T02:58:35.128Z,4.73
2024-01-05T03:01:01.848Z,8.27
2024-01-05T03:03:28.535Z,5.30
2024-01-05T03:05:54.934Z,9.40
2024-01-05T03:08:23.780Z,6.37
2024-01-05T03:10:50.150Z,10.60
2024-01-05T03:13:16.525Z,8.67
2024-01-05T03:15:43.297Z,8.87
2024-01-05T03:18:09.846Z,7.80
2024-01-05T03:20:37.937Z,7.27
2024-01-05T03:23:04.398Z,10.50
2024-01-05T03:25:30.776Z,11.33
2024-01-05T03:27:57.252Z,10.07
2024-01-05T03:30:23.976Z,13.00
2024-01-05T03:32:50.989Z,8.37
2024-01-05T03:35:17.705Z,2.77
2024-01-05T03:37:44.396Z,6.90
2024-01-05T03:40:11.087Z,8.03
2024-01-05T03:42:37.729Z,11.10
2024-01-05T03:45:04.426Z,4.27
2024-01-05T03:47:30.870Z,12.20
2024-01-05T03:49:58.801Z,5.50
2024-01-05T03:52:25.665Z,7.07
2024-01-05T03:54:52.257Z,5.50
2024-01-05T03:57:18.641Z,5.20
2024-01-05T03:59:45.158Z,10.87
2024-01-05T04:02:11.472Z,2.63
2024-01-05T04:04:37.955Z,5.80
2024-01-05T04:07:05.323Z,3.90
2024-01-05T04:09:32.922Z,7.87
2024-01-05T04:11:59.640Z,6.00
2024-01-05T04:14:26.382Z,9.17
2024-01-05T04:16:52.788Z,8.83
2024-01-05T04:19:19.231Z,6.00
2024-01-05T04:21:46.047Z,6.03
2024-01-05T04:24:12.688Z,8.17
2024-01-05T04:26:39.422Z,5.27
2024-01-05T04:29:06.074Z,3.90
2024-01-05T04:31:35.109Z,6.03
2024-01-05T04:34:05.542Z,3.37
2024-01-05T04:36:32.096Z,4.63
2024-01-05T04:38:58.480Z,3.40
2024-01-05T04:41:25.323Z,6.43
2024-01-05T04:43:51.909Z,2.40
2024-01-05T04:46:18.788Z,5.97
2024-01-05T04:48:45.272Z,7.43
2024-01-05T04:51:12.259Z,6.13
2024-01-05T04:53:38.896Z,4.37
2024-01-05T04:56:05.446Z,8.13
2024-01-05T04:58:32.139Z,5.53
2024-01-05T05:00:58.759Z,6.87
2024-01-05T05:03:27.757Z,5.67
2024-01-05T05:05:54.441Z,7.90
2024-01-05T05:08:21.120Z,3.77
2024-01-05T05:10:47.522Z,7.33
2024-01-05T05:13:14.148Z,5.50
2024-01-05T05:15:40.748Z,3.13
2024-01-05T05:18:07.562Z,2.37
2024-01-05T05:20:34.241Z,9.97
2024-01-05T05:23:03.053Z,4.23
2024-01-05T05:25:29.444Z,2.00
2024-01-05T05:27:56.242Z,6.57
2024-01-05T05:30:23.115Z,3.83
2024-01-05T05:32:49.769Z,5.90
2024-01-05T05:35:16.360Z,6.87
2024-01-05T05:37:42.971Z,3.20
2024-01-05T05:40:10.386Z,1.23
2024-01-05T05:42:37.050Z,3.80
2024-01-05T05:45:03.816Z,5.30
2024-01-05T05:47:30.221Z,5.43
2024-01-05T05:49:56.648Z,6.97
2024-01-05T05:52:23.061Z,1.50
2024-01-05T05:54:53.241Z,2.57
2024-01-05T05:57:19.841Z,4.00
2024-01-05T05:59:46.324Z,3.27
2024-01-05T06:02:13.351Z,4.20
2024-01-05T06:04:40.420Z,2.70
2024-01-05T06:07:07.155Z,0.83
2024-01-05T06:09:33.654Z,1.40
2024-01-05T06:12:00.115Z,0.40
2024-01-05T06:14:26.477Z,1.50
2024-01-05T06:16:52.819Z,2.73
2024-01-05T06:19:20.400Z,1.97
2024-01-05T06:21:47.674Z,0.90
2024-01-05T06:24:14.370Z,2.30
2024-01-05T06:26:40.953Z,3.03
2024-01-05T06:29:07.354Z,1.07
2024-01-05T06:31:33.902Z,1.20
2024-01-05T06:34:03.150Z,2.00
2024-01-05T06:36:30.093Z,0.50
2024-01-05T06:38:57.136Z,0.70
2024-01-05T06:41:23.641Z,0.47
2024-01-05T06:43:49.928Z,3.70
2024-01-05T06:46:16.350Z,0.53
2024-01-05T06:48:42.983Z,2.47
2024-01-05T06:51:09.579Z,0.40
2024-01-05T06:53:36.824Z,0.70
2024-01-05T06:56:04.041Z,0.73
2024-01-05T06:58:30.545Z,1.17
2024-01-05T07:00:58.012Z,0.70
2024-01-05T07:03:25.787Z,3.77
2024-01-05T07:05:52.164Z,0.70
2024-01-05T07:08:18.539Z,0.67
2024-01-05T07:10:45.823Z,2.33
2024-01-05T07:13:14.700Z,0.47
2024-01-05T07:15:41.834Z,4.17
2024-01-05T07:18:08.399Z,1.90
2024-01-05T07:20:34.949Z,2.73
2024-01-05T07:23:01.357Z,1.03
2024-01-05T07:25:27.821Z,2.00
2024-01-05T07:27:54.185Z,1.63
2024-01-05T07:30:20.639Z,1.20
2024-01-05T07:32:47.446Z,1.47
2024-01-05T07:35:14.344Z,0.70
2024-01-05T07:37:40.690Z,3.20
2024-01-05T07:40:07.728Z,0.70
2024-01-05T07:42:34.095Z,0.80
2024-01-05T07:45:01.596Z,2.63
2024-01-05T07:47:28.103Z,0.70
2024-01-05T07:49:54.547Z,1.60
2024-01-05T07:52:21.100Z,1.13
2024-01-05T07:54:47.728Z,1.27
2024-01-05T07:57:14.264Z,1.23
2024-01-05T07:59:40.619Z,1.50
2024-01-05T08:02:07.113Z,1.27
2024-01-05T08:04:35.388Z,2.60
2024-01-05T08:07:01.795Z,0.70
2024-01-05T08:09:28.527Z,3.40
2024-01-05T08:11:54.951Z,0.80
2024-01-05T08:14:21.447Z,1.00
2024-01-05T08:16:48.157Z,1.67
2024-01-05T08:19:15.025Z,1.37
2024-01-05T08:21:41.790Z,1.23
2024-01-05T08:24:08.593Z,1.60
2024-01-05T08:26:35.259Z,2.70
2024-01-05T08:29:01.664Z,1.17
2024-01-05T08:31:28.375Z,1.10
2024-01-05T08:33:54.938Z,1.30
2024-01-05T08:36:21.469Z,1.27
2024-01-05T08:38:48.025Z,1.50
2024-01-05T08:41:14.398Z,1.53
2024-01-05T08:43:43.112Z,1.50
2024-01-05T08:46:09.645Z,1.93
2024-01-05T08:48:36.190Z,3.60
2024-01-05T08:51:03.707Z,1.57
2024-01-05T08:53:30.153Z,1.57
2024-01-05T08:55:56.780Z,2.13
2024-01-05T08:58:23.306Z,1.50
2024-01-05T09:00:50.807Z,2.57
2024-01-05T09:03:17.468Z,1.67
2024-01-05T09:05:44.485Z,1.57
2024-01-05T09:08:11.064Z,1.47
2024-01-05T09:10:39.317Z,1.83
2024-01-05T09:13:05.995Z,2.77
2024-01-05T09:15:32.496Z,1.57
2024-01-05T09:17:59.402Z,2.80
2024-01-05T09:20:25.860Z,1.63
2024-01-05T09:22:52.392Z,1.70
2024-01-05T09:25:18.819Z,2.53
2024-01-05T09:27:45.174Z,2.17
2024-01-05T09:30:12.263Z,1.90
2024-01-05T09:32:38.803Z,2.40
2024-01-05T09:35:05.853Z,2.17
2024-01-05T09:37:32.426Z,2.87
2024-01-05T09:39:58.904Z,2.40
2024-01-05T09:42:25.647Z,2.33
2024-01-05T09:44:54.596Z,2.13
2024-01-05T09:47:21.392Z,3.97
2024-01-05T09:49:50.606Z,4.83
2024-01-05T09:52:19.318Z,3.70
2024-01-05T09:54:47.464Z,3.73
2024-01-05T09:57:17.752Z,3.27
2024-01-05T09:59:48.632Z,5.63
2024-01-05T10:02:22.469Z,3.97
2024-01-05T10:04:48.998Z,4.50
2024-01-05T10:07:17.044Z,4.03
2024-01-05T10:09:51.393Z,7.10
2024-01-05T10:12:19.156Z,5.50
2024-01-05T10:14:48.578Z,4.77
2024-01-05T10:17:17.435Z,4.40
2024-01-05T10:19:44.250Z,4.03
2024-01-05T10:22:11.983Z,6.33
2024-01-05T10:24:38.873Z,6.53
2024-01-05T10:27:08.419Z,4.30
2024-01-05T10:29:37.766Z,8.27
2024-01-05T10:32:11.235Z,6.37
2024-01-05T10:34:37.952Z,6.10
2024-01-05T10:37:05.664Z,5.00
2024-01-05T10:39:32.321Z,4.00
2024-01-05T10:42:20.140Z,7.00
2024-01-05T10:44:47.280Z,6.17
2024-01-05T10:47:16.684Z,5.07
2024-01-05T10:49:46.552Z,4.90
2024-01-05T10:52:14.974Z,5.30
2024-01-05T10:54:42.144Z,3.30
2024-01-05T10:57:10.175Z,6.07
2024-01-05T10:59:36.722Z,5.00
2024-01-05T11:02:04.561Z,4.50
2024-01-05T11:04:31.606Z,4.07
2024-01-05T11:07:00.117Z,5.57
2024-01-05T11:09:32.878Z,9.23
2024-01-05T11:12:12.078Z,7.70
2024-01-05T11:14:50.389Z,4.93
2024-01-05T11:17:35.526Z,6.27
2024-01-05T11:20:16.827Z,5.10
2024-01-05T11:22:46.392Z,3.97
2024-01-05T11:25:13.596Z,5.03
2024-01-05T11:27:45.215Z,4.30
2024-01-05T11:30:11.773Z,5.60
2024-01-05T11:32:39.398Z,6.33
2024-01-05T11:35:21.266Z,5.53
2024-01-05T11:37:48.055Z,5.93
2024-01-05T11:40:35.002Z,7.07
2024-01-05T11:43:20.343Z,6.77
2024-01-05T11:45:46.864Z,7.73
2024-01-05T11:48:32.192Z,5.07
2024-01-05T11:51:03.841Z,7.53
2024-01-05T11:53:30.536Z,7.47
2024-01-05T11:55:59.107Z,7.93
2024-01-05T11:58:33.229Z,9.90
2024-01-05T12:01:01.389Z,8.87
2024-01-05T12:03:28.384Z,6.97
2024-01-05T12:05:59.175Z,7.43
2024-01-05T12:08:26.249Z,8.13
2024-01-05T12:11:04.637Z,7.03
2024-01-05T12:13:32.235Z,7.37
2024-01-05T12:16:02.014Z,5.93
2024-01-05T12:18:37.569Z,7.47
2024-01-05T12:21:06.411Z,3.43
2024-01-05T12:23:33.529Z,4.13
2024-01-05T12:26:04.721Z,3.60
2024-01-05T12:28:32.087Z,4.30
2024-01-05T12:30:59.592Z,4.53
2024-01-05T12:33:26.863Z,4.07
2024-01-05T12:35:53.592Z,3.23
2024-01-05T12:38:24.256Z,4.07
2024-01-05T12:40:51.017Z,2.57
2024-01-05T12:43:18.296Z,5.10
2024-01-05T12:45:47.467Z,3.10
2024-01-05T12:48:14.397Z,3.27
2024-01-05T12:50:41.702Z,4.07
2024-01-05T12:53:18.264Z,2.20
2024-01-05T12:55:44.766Z,3.93
2024-01-05T12:58:11.449Z,3.30
2024-01-05T13:00:43.761Z,3.17
2024-01-05T13:03:17.480Z,3.40
2024-01-05T13:05:44.553Z,3.83
2024-01-05T13:08:11.150Z,4.87
2024-01-05T13:10:40.916Z,4.23
2024-01-05T13:13:07.754Z,4.40
2024-01-05T13:15:34.907Z,5.10
2024-01-05T13:18:02.471Z,6.07
2024-01-05T13:20:29.262Z,3.10
2024-01-05T13:23:02.158Z,3.77
2024-01-05T13:25:29.125Z,2.43
2024-01-05T13:27:56.254Z,2.37
2024-01-05T13:30:23.484Z,2.67
2024-01-05T13:32:53.987Z,3.13
2024-01-05T13:35:20.846Z,2.10
2024-01-05T13:37:48.322Z,1.80
2024-01-05T13:40:15.042Z,2.07
2024-01-05T13:42:41.504Z,1.33
2024-01-05T13:45:08.374Z,1.70
2024-01-05T13:47:35.877Z,2.87
2024-01-05T13:50:03.945Z,1.77
2024-01-05T13:52:30.603Z,3.10
2024-01-05T13:54:57.050Z,1.40
2024-01-05T13:57:24.939Z,1.63
2024-01-05T13:59:51.490Z,3.93
2024-01-05T14:02:21.165Z,1.00
2024-01-05T14:04:48.313Z,1.57
2024-01-05T14:07:15.445Z,1.47
2024-01-05T14:09:43.059Z,0.50
2024-01-05T14:12:09.761Z,0.87
2024-01-05T14:14:36.070Z,0.80
2024-01-05T14:17:03.711Z,1.00
2024-01-05T14:19:30.261Z,0.70
2024-01-05T14:21:59.831Z,1.13
2024-01-05T14:24:26.513Z,2.00
2024-01-05T14:26:53.107Z,0.57
2024-01-05T14:29:19.614Z,1.13
2024-01-05T14:31:46.413Z,0.97
2024-01-05T14:34:15.591Z,1.27
2024-01-05T14:36:41.952Z,0.73
2024-01-05T14:39:08.491Z,2.23
2024-01-05T14:41:34.934Z,5.97
2024-01-05T14:44:01.539Z,3.63
2024-01-05T14:46:28.727Z,1.50
2024-01-05T14:48:55.259Z,0.83
2024-01-05T14:51:22.067Z,1.37
2024-01-05T14:53:48.989Z,4.77
2024-01-05T14:56:18.291Z,2.10
2024-01-05T14:58:46.388Z,1.53
2024-01-05T15:01:15.027Z,2.27
2024-01-05T15:03:41.996Z,1.53
2024-01-05T15:06:09.198Z,1.27
2024-01-05T15:08:36.298Z,1.87
2024-01-05T15:11:04.075Z,2.87
2024-01-05T15:13:30.564Z,1.50
2024-01-05T15:16:00.358Z,2.43
2024-01-05T15:18:27.818Z,1.47
2024-01-05T15:20:54.782Z,7.00
2024-01-05T15:23:21.678Z,2.20
2024-01-05T15:25:48.304Z,3.03
2024-01-05T15:28:15.146Z,2.63
2024-01-05T15:30:41.652Z,3.47
2024-01-05T15:33:08.333Z,4.20
2024-01-05T15:35:36.679Z,2.27
2024-01-05T15:38:06.211Z,4.70
2024-01-05T15:40:35.774Z,3.67
2024-01-05T15:43:04.341Z,4.87
2024-01-05T15:45:33.067Z,2.93
2024-01-05T15:48:00.553Z,2.57
2024-01-05T15:50:30.997Z,4.43
2024-01-05T15:52:57.461Z,2.37
2024-01-05T15:55:25.988Z,6.03
2024-01-05T15:57:52.911Z,4.03
2024-01-05T16:00:19.765Z,4.27
2024-01-05T16:02:46.597Z,2.77
2024-01-05T16:05:12.980Z,4.67
2024-01-05T16:07:39.507Z,2.53
2024-01-05T16:10:06.257Z,2.20
2024-01-05T16:12:33.519Z,3.27
2024-01-05T16:15:00.251Z,3.40
2024-01-05T16:17:34.075Z,2.47
2024-01-05T16:20:01.634Z,6.80
2024-01-05T16:22:34.235Z,5.30
2024-01-05T16:25:00.798Z,2.73
2024-01-05T16:27:27.951Z,2.67
2024-01-05T16:29:54.626Z,2.43
2024-01-05T16:32:21.877Z,3.97
2024-01-05T16:34:48.606Z,3.23
2024-01-05T16:37:15.527Z,2.73
2024-01-05T16:39:46.151Z,2.70
2024-01-05T16:42:13.104Z,3.63
2024-01-05T16:44:43.031Z,2.37
2024-01-05T16:47:09.595Z,4.07
2024-01-05T16:49:37.603Z,3.67
2024-01-05T16:52:04.129Z,7.27
2024-01-05T16:54:30.730Z,5.47
2024-01-05T16:56:57.563Z,3.30
2024-01-05T16:59:24.525Z,2.17
2024-01-05T17:01:50.923Z,3.97
2024-01-05T17:04:17.490Z,3.77
2024-01-05T17:06:50.483Z,4.03
2024-01-05T17:09:19.369Z,4.20
2024-01-05T17:11:45.799Z,5.07
2024-01-05T17:14:12.376Z,5.23
2024-01-05T17:16:38.723Z,4.80
2024-01-05T17:19:06.467Z,4.07
2024-01-05T17:21:32.850Z,4.10
2024-01-05T17:23:59.421Z,3.53
2024-01-05T17:26:27.257Z,6.00
2024-01-05T17:28:53.846Z,3.23
2024-01-05T17:31:20.379Z,4.17
2024-01-05T17:33:47.037Z,5.27
2024-01-05T17:36:14.604Z,7.70
2024-01-05T17:38:42.322Z,5.00
2024-01-05T17:41:09.149Z,4.80
2024-01-05T17:43:35.543Z,4.07
2024-01-05T17:46:05.884Z,5.13
2024-01-05T17:48:32.493Z,6.83
2024-01-05T17:51:01.961Z,5.93
2024-01-05T17:53:29.509Z,5.13
2024-01-05T17:55:55.982Z,5.27
2024-01-05T17:58:22.351Z,4.47
2024-01-05T18:00:48.986Z,5.23
2024-01-05T18:03:16.375Z,6.00
2024-01-05T18:05:43.421Z,5.27
2024-01-05T18:08:11.001Z,3.33
2024-01-05T18:10:38.342Z,9.40
2024-01-05T18:13:04.684Z,4.83
2024-01-05T18:15:31.034Z,4.20
2024-01-05T18:17:57.840Z,8.20
2024-01-05T18:20:24.452Z,8.53
2024-01-05T18:22:50.864Z,6.43
2024-01-05T18:25:19.749Z,8.13
2024-01-05T18:27:46.147Z,8.13
2024-01-05T18:30:12.852Z,9.03
2024-01-05T18:32:39.743Z,7.07
2024-01-05T18:35:06.546Z,8.17
2024-01-05T18:37:33.652Z,7.60
2024-01-05T18:40:01.131Z,9.07
2024-01-05T18:42:27.626Z,11.70
2024-01-05T18:44:54.266Z,10.27
2024-01-05T18:47:20.776Z,6.70
2024-01-05T18:49:47.328Z,8.30
2024-01-05T18:52:15.811Z,11.90
2024-01-05T18:54:43.330Z,9.23
2024-01-05T18:57:10.119Z,8.80
2024-01-05T18:59:36.555Z,8.23
2024-01-05T19:02:03.135Z,9.50
2024-01-05T19:04:29.708Z,16.13
2024-01-05T19:06:57.488Z,14.40
2024-01-05T19:09:25.181Z,7.13
2024-01-05T19:11:52.609Z,8.20
2024-01-05T19:14:21.311Z,13.67
2024-01-05T19:16:48.551Z,11.83
2024-01-05T19:19:17.881Z,10.17
2024-01-05T19:21:55.336Z,9.80
2024-01-05T19:24:24.563Z,8.67
2024-01-05T19:26:51.156Z,5.83
2024-01-05T19:29:17.576Z,7.13
2024-01-05T19:31:44.644Z,7.73
2024-01-05T19:34:12.973Z,10.30
2024-01-05T19:36:43.859Z,8.17
2024-01-05T19:39:11.052Z,8.20
2024-01-05T19:41:47.464Z,9.33
2024-01-05T19:44:18.424Z,11.60
2024-01-05T19:46:45.502Z,8.33
2024-01-05T19:49:12.169Z,10.40
2024-01-05T19:51:46.427Z,8.63
2024-01-05T19:54:15.195Z,9.00
2024-01-05T19:56:42.075Z,7.23
2024-01-05T19:59:10.405Z,11.43
2024-01-05T20:01:37.397Z,9.27
2024-01-05T20:04:04.578Z,13.73
2024-01-05T20:06:31.017Z,10.90
2024-01-05T20:08:57.629Z,10.33
2024-01-05T20:11:24.173Z,11.07
2024-01-05T20:13:50.685Z,12.53
2024-01-05T20:16:17.384Z,9.60
2024-01-05T20:18:44.245Z,8.70
2024-01-05T20:21:14.745Z,7.30
2024-01-05T20:23:41.300Z,7.03
2024-01-05T20:26:08.048Z,10.80
2024-01-05T20:28:34.487Z,7.27
2024-01-05T20:31:01.748Z,5.23
2024-01-05T20:33:29.561Z,6.77
2024-01-05T20:35:57.211Z,3.57
2024-01-05T20:38:24.149Z,3.10
2024-01-05T20:40:50.523Z,4.60
2024-01-05T20:43:16.894Z,5.93
2024-01-05T20:45:45.015Z,8.93
2024-01-05T20:48:11.564Z,8.97
2024-01-05T20:50:38.631Z,6.93
2024-01-05T20:53:11.556Z,6.07
2024-01-05T20:55:39.185Z,7.47
2024-01-05T20:58:05.860Z,7.60
2024-01-05T21:00:32.588Z,7.80
2024-01-05T21:02:59.082Z,9.03
2024-01-05T21:05:26.695Z,6.90
2024-01-05T21:07:54.461Z,8.43
2024-01-05T21:10:20.871Z,9.93
2024-01-05T21:12:47.532Z,9.60
2024-01-05T21:15:13.874Z,11.90
2024-01-05T21:17:40.571Z,7.80
2024-01-05T21:20:07.925Z,8.97
2024-01-05T21:22:36.640Z,7.90
2024-01-05T21:25:06.682Z,9.93
2024-01-05T21:27:33.248Z,13.17
2024-01-05T21:29:59.648Z,10.97
2024-01-05T21:32:28.627Z,12.33
2024-01-05T21:34:56.552Z,7.77
2024-01-05T21:37:23.196Z,7.87
2024-01-05T21:39:49.898Z,10.20
2024-01-05T21:42:18.650Z,6.33
2024-01-05T21:44:45.204Z,9.90
2024-01-05T21:47:14.244Z,8.00
2024-01-05T21:49:43.508Z,7.93
2024-01-05T21:52:09.934Z,7.57
2024-01-05T21:54:36.399Z,9.53
2024-01-05T21:57:03.843Z,8.30
2024-01-05T21:59:33.833Z,7.63
2024-01-05T22:02:01.706Z,7.80
2024-01-05T22:04:28.451Z,7.43
2024-01-05T22:06:56.193Z,9.50
2024-01-05T22:09:23.946Z,10.43
2024-01-05T22:11:50.584Z,8.20
2024-01-05T22:14:16.986Z,9.30
2024-01-05T22:16:43.388Z,6.10
2024-01-05T22:19:10.572Z,9.00
2024-01-05T22:21:38.091Z,9.87
2024-01-05T22:24:05.073Z,7.77
2024-01-05T22:26:34.458Z,7.77
2024-01-05T22:29:01.252Z,7.90
2024-01-05T22:31:27.821Z,4.97
2024-01-05T22:33:54.461Z,6.27
2024-01-05T22:36:20.993Z,7.87
2024-01-05T22:38:47.311Z,6.03
2024-01-05T22:41:14.059Z,5.60
2024-01-05T22:43:41.421Z,6.83
2024-01-05T22:46:08.969Z,4.63
2024-01-05T22:48:36.618Z,3.43
2024-01-05T22:51:03.523Z,4.63
2024-01-05T22:53:31.085Z,5.33
2024-01-05T22:55:57.628Z,5.67
2024-01-05T22:58:24.116Z,6.33
2024-01-05T23:00:50.765Z,3.80
2024-01-05T23:03:18.347Z,4.43
2024-01-05T23:05:45.132Z,4.57
2024-01-05T23:08:11.709Z,4.67
2024-01-05T23:10:38.201Z,4.47
2024-01-05T23:13:09.692Z,4.13
2024-01-05T23:15:36.433Z,5.03
2024-01-05T23:18:03.187Z,3.23
2024-01-05T23:20:29.824Z,3.93
2024-01-05T23:22:57.072Z,4.80
2024-01-05T23:25:23.403Z,5.23
2024-01-05T23:27:49.918Z,4.63
2024-01-05T23:30:16.466Z,8.20
2024-01-05T23:32:43.481Z,4.13
2024-01-05T23:35:10.336Z,3.73
2024-01-05T23:37:36.789Z,3.70
2024-01-05T23:40:04.613Z,3.67
2024-01-05T23:42:31.669Z,3.17
2024-01-05T23:44:58.040Z,5.47
2024-01-05T23:47:24.441Z,4.67
2024-01-05T23:49:50.970Z,3.67
2024-01-05T23:52:17.473Z,6.80
2024-01-05T23:54:44.333Z,3.63
2024-01-05T23:57:10.972Z,3.57
2024-01-05T23:59:37.377Z,5.90
